sensor_id;sensor_type;location;lat;lon;timestamp;temperature;humidity
15900;DHT22;8048;50.644;6.184;2022-12-10T00:00:37;-1.60;99.90
15900;DHT22;8048;50.644;6.184;2022-12-10T00:03:03;-1.60;99.90
15900;DHT22;8048;50.644;6.184;2022-12-10T00:05:29;-1.60;99.90
15900;DHT22;8048;50.644;6.184;2022-12-10T00:07:55;-1.60;99.90
15900;DHT22;8048;50.644;6.184;2022-12-10T00:10:20;-1.60;99.90
15900;DHT22;8048;50.644;6.184;2022-12-10T00:12:46;-1.50;99.90
15900;DHT22;8048;50.644;6.184;2022-12-10T00:15:11;-1.50;99.90
15900;DHT22;8048;50.644;6.184;2022-12-10T00:17:37;-1.50;99.90
15900;DHT22;8048;50.644;6.184;2022-12-10T00:20:02;-1.40;99.90
15900;DHT22;8048;50.644;6.184;2022-12-10T00:22:28;-1.40;99.90
15900;DHT22;8048;50.644;6.184;2022-12-10T00:24:54;-1.40;99.90
15900;DHT22;8048;50.644;6.184;2022-12-10T00:27:19;-1.40;99.90
15900;DHT22;8048;50.644;6.184;2022-12-10T00:29:45;-1.40;99.90
15900;DHT22;8048;50.644;6.184;2022-12-10T00:32:11;-1.40;99.90
15900;DHT22;8048;50.644;6.184;2022-12-10T00:34:36;-1.30;99.90
15900;DHT22;8048;50.644;6.184;2022-12-10T00:37:02;-1.30;99.90
15900;DHT22;8048;50.644;6.184;2022-12-10T00:39:27;-1.30;99.90
15900;DHT22;8048;50.644;6.184;2022-12-10T00:41:53;-1.20;99.90
15900;DHT22;8048;50.644;6.184;2022-12-10T00:44:18;-1.20;99.90
15900;DHT22;8048;50.644;6.184;2022-12-10T00:46:44;-1.20;99.90
15900;DHT22;8048;50.644;6.184;2022-12-10T00:49:10;-1.20;99.90
15900;DHT22;8048;50.644;6.184;2022-12-10T00:51:35;-1.20;99.90
15900;DHT22;8048;50.644;6.184;2022-12-10T00:54:01;-1.10;99.90
15900;DHT22;8048;50.644;6.184;2022-12-10T00:56:31;-1.10;99.90
15900;DHT22;8048;50.644;6.184;2022-12-10T00:58:58;-1.10;99.90
15900;DHT22;8048;50.644;6.184;2022-12-10T01:01:28;-1.00;99.90
15900;DHT22;8048;50.644;6.184;2022-12-10T01:03:56;-1.00;99.90
15900;DHT22;8048;50.644;6.184;2022-12-10T01:06:28;-1.00;99.90
15900;DHT22;8048;50.644;6.184;2022-12-10T01:08:57;-1.00;99.90
15900;DHT22;8048;50.644;6.184;2022-12-10T01:11:26;-0.90;99.90
15900;DHT22;8048;50.644;6.184;2022-12-10T01:13:53;-0.90;99.90
15900;DHT22;8048;50.644;6.184;2022-12-10T01:16:21;-0.90;99.90
15900;DHT22;8048;50.644;6.184;2022-12-10T01:18:47;-0.80;99.90
15900;DHT22;8048;50.644;6.184;2022-12-10T01:21:17;-0.90;99.90
15900;DHT22;8048;50.644;6.184;2022-12-10T01:23:44;-0.90;99.90
15900;DHT22;8048;50.644;6.184;2022-12-10T01:26:12;-1.00;99.90
15900;DHT22;8048;50.644;6.184;2022-12-10T01:28:39;-1.00;99.90
15900;DHT22;8048;50.644;6.184;2022-12-10T01:31:08;-1.10;99.90
15900;DHT22;8048;50.644;6.184;2022-12-10T01:33:35;-1.10;99.90
15900;DHT22;8048;50.644;6.184;2022-12-10T01:36:13;-1.20;99.90
15900;DHT22;8048;50.644;6.184;2022-12-10T01:38:39;-1.20;99.90
15900;DHT22;8048;50.644;6.184;2022-12-10T01:41:06;-1.20;99.90
15900;DHT22;8048;50.644;6.184;2022-12-10T01:46:15;-1.40;99.90
15900;DHT22;8048;50.644;6.184;2022-12-10T01:48:41;-1.40;99.90
15900;DHT22;8048;50.644;6.184;2022-12-10T01:51:07;-1.40;99.90
15900;DHT22;8048;50.644;6.184;2022-12-10T01:53:33;-1.40;99.90
15900;DHT22;8048;50.644;6.184;2022-12-10T01:55:59;-1.40;99.90
15900;DHT22;8048;50.644;6.184;2022-12-10T01:58:25;-1.40;99.90
15900;DHT22;8048;50.644;6.184;2022-12-10T02:03:37;-1.50;99.90
15900;DHT22;8048;50.644;6.184;2022-12-10T02:11:46;-1.50;99.90
15900;DHT22;8048;50.644;6.184;2022-12-10T02:14:19;-1.50;99.90
15900;DHT22;8048;50.644;6.184;2022-12-10T02:16:56;-1.40;99.90
15900;DHT22;8048;50.644;6.184;2022-12-10T02:22:10;-1.40;99.90
15900;DHT22;8048;50.644;6.184;2022-12-10T02:24:38;-1.20;99.90
15900;DHT22;8048;50.644;6.184;2022-12-10T02:27:15;-1.20;99.90
15900;DHT22;8048;50.644;6.184;2022-12-10T02:29:44;-1.20;99.90
15900;DHT22;8048;50.644;6.184;2022-12-10T02:32:17;-1.20;99.90
15900;DHT22;8048;50.644;6.184;2022-12-10T02:34:50;-1.20;99.90
15900;DHT22;8048;50.644;6.184;2022-12-10T02:37:34;-1.20;99.90
15900;DHT22;8048;50.644;6.184;2022-12-10T02:40:06;-1.10;99.90
15900;DHT22;8048;50.644;6.184;2022-12-10T02:42:35;-1.10;99.90
15900;DHT22;8048;50.644;6.184;2022-12-10T02:45:03;-1.10;99.90
15900;DHT22;8048;50.644;6.184;2022-12-10T02:47:29;-1.00;99.90
15900;DHT22;8048;50.644;6.184;2022-12-10T02:49:56;-1.00;99.90
15900;DHT22;8048;50.644;6.184;2022-12-10T02:52:24;-1.00;99.90
15900;DHT22;8048;50.644;6.184;2022-12-10T02:54:50;-1.00;99.90
15900;DHT22;8048;50.644;6.184;2022-12-10T02:57:29;-1.00;99.90
15900;DHT22;8048;50.644;6.184;2022-12-10T03:11:11;-1.10;99.90
15900;DHT22;8048;50.644;6.184;2022-12-10T03:16:26;-1.10;99.90
15900;DHT22;8048;50.644;6.184;2022-12-10T03:18:57;-1.10;99.90
15900;DHT22;8048;50.644;6.184;2022-12-10T03:21:24;-1.10;99.90
15900;DHT22;8048;50.644;6.184;2022-12-10T03:23:51;-1.10;99.90
15900;DHT22;8048;50.644;6.184;2022-12-10T03:26:18;-1.10;99.90
15900;DHT22;8048;50.644;6.184;2022-12-10T03:28:56;-1.20;99.90
15900;DHT22;8048;50.644;6.184;2022-12-10T03:31:23;-1.30;99.90
15900;DHT22;8048;50.644;6.184;2022-12-10T03:33:49;-1.30;99.90
15900;DHT22;8048;50.644;6.184;2022-12-10T03:36:17;-1.30;99.90
15900;DHT22;8048;50.644;6.184;2022-12-10T03:38:43;-1.30;99.90
15900;DHT22;8048;50.644;6.184;2022-12-10T03:41:09;-1.40;99.90
15900;DHT22;8048;50.644;6.184;2022-12-10T03:43:35;-1.40;99.90
15900;DHT22;8048;50.644;6.184;2022-12-10T03:46:00;-1.40;99.90
15900;DHT22;8048;50.644;6.184;2022-12-10T03:48:26;-1.50;99.90
15900;DHT22;8048;50.644;6.184;2022-12-10T03:50:51;-1.50;99.90
15900;DHT22;8048;50.644;6.184;2022-12-10T03:53:17;-1.60;99.90
15900;DHT22;8048;50.644;6.184;2022-12-10T03:55:42;-1.60;99.90
15900;DHT22;8048;50.644;6.184;2022-12-10T03:58:08;-1.60;99.90
15900;DHT22;8048;50.644;6.184;2022-12-10T04:00:34;-1.60;99.90
15900;DHT22;8048;50.644;6.184;2022-12-10T04:02:59;-1.60;99.90
15900;DHT22;8048;50.644;6.184;2022-12-10T04:05:25;-1.60;99.90
15900;DHT22;8048;50.644;6.184;2022-12-10T04:07:50;-1.50;99.90
15900;DHT22;8048;50.644;6.184;2022-12-10T04:10:16;-1.40;99.90
15900;DHT22;8048;50.644;6.184;2022-12-10T04:12:41;-1.40;99.90
15900;DHT22;8048;50.644;6.184;2022-12-10T04:15:07;-1.30;99.90
15900;DHT22;8048;50.644;6.184;2022-12-10T04:17:52;-1.30;99.90
15900;DHT22;8048;50.644;6.184;2022-12-10T04:20:18;-1.20;99.90
15900;DHT22;8048;50.644;6.184;2022-12-10T04:23:02;-1.30;99.90
15900;DHT22;8048;50.644;6.184;2022-12-10T04:25:46;-1.30;99.90
15900;DHT22;8048;50.644;6.184;2022-12-10T04:28:30;-1.30;99.90
15900;DHT22;8048;50.644;6.184;2022-12-10T04:30:55;-1.30;99.90
15900;DHT22;8048;50.644;6.184;2022-12-10T04:33:21;-1.30;99.90
15900;DHT22;8048;50.644;6.184;2022-12-10T04:35:46;-1.30;99.90
15900;DHT22;8048;50.644;6.184;2022-12-10T04:38:12;-1.30;99.90
15900;DHT22;8048;50.644;6.184;2022-12-10T04:40:37;-1.10;99.90
15900;DHT22;8048;50.644;6.184;2022-12-10T04:43:03;-1.10;99.90
15900;DHT22;8048;50.644;6.184;2022-12-10T04:45:28;-1.20;99.90
15900;DHT22;8048;50.644;6.184;2022-12-10T04:47:54;-1.10;99.90
15900;DHT22;8048;50.644;6.184;2022-12-10T04:50:19;-1.20;99.90
15900;DHT22;8048;50.644;6.184;2022-12-10T04:52:45;-1.30;99.90
15900;DHT22;8048;50.644;6.184;2022-12-10T04:55:10;-1.30;99.90
15900;DHT22;8048;50.644;6.184;2022-12-10T04:57:36;-1.30;99.90
15900;DHT22;8048;50.644;6.184;2022-12-10T05:00:02;-1.40;99.90
15900;DHT22;8048;50.644;6.184;2022-12-10T05:02:28;-1.40;99.90
15900;DHT22;8048;50.644;6.184;2022-12-10T05:04:54;-1.40;99.90
15900;DHT22;8048;50.644;6.184;2022-12-10T05:07:19;-1.30;99.90
15900;DHT22;8048;50.644;6.184;2022-12-10T05:09:45;-1.30;99.90
15900;DHT22;8048;50.644;6.184;2022-12-10T05:12:10;-1.30;99.90
15900;DHT22;8048;50.644;6.184;2022-12-10T05:14:36;-1.40;99.90
15900;DHT22;8048;50.644;6.184;2022-12-10T05:17:01;-1.40;99.90
15900;DHT22;8048;50.644;6.184;2022-12-10T05:19:27;-1.40;99.90
15900;DHT22;8048;50.644;6.184;2022-12-10T05:21:53;-1.40;99.90
15900;DHT22;8048;50.644;6.184;2022-12-10T05:24:38;-1.30;99.90
15900;DHT22;8048;50.644;6.184;2022-12-10T05:27:04;-1.40;99.90
15900;DHT22;8048;50.644;6.184;2022-12-10T05:29:31;-1.40;99.90
15900;DHT22;8048;50.644;6.184;2022-12-10T05:31:56;-1.40;99.90
15900;DHT22;8048;50.644;6.184;2022-12-10T05:34:22;-1.50;99.90
15900;DHT22;8048;50.644;6.184;2022-12-10T05:36:47;-1.50;99.90
15900;DHT22;8048;50.644;6.184;2022-12-10T05:39:13;-1.50;99.90
15900;DHT22;8048;50.644;6.184;2022-12-10T05:41:39;-1.50;99.90
15900;DHT22;8048;50.644;6.184;2022-12-10T05:44:05;-1.60;99.90
15900;DHT22;8048;50.644;6.184;2022-12-10T05:46:33;-1.50;99.90
15900;DHT22;8048;50.644;6.184;2022-12-10T05:49:00;-1.60;99.90
15900;DHT22;8048;50.644;6.184;2022-12-10T05:51:29;-1.60;99.90
15900;DHT22;8048;50.644;6.184;2022-12-10T05:53:57;-1.50;99.90
15900;DHT22;8048;50.644;6.184;2022-12-10T05:56:25;-1.50;99.90
15900;DHT22;8048;50.644;6.184;2022-12-10T05:58:54;-1.50;99.90
15900;DHT22;8048;50.644;6.184;2022-12-10T06:01:24;-1.50;99.90
15900;DHT22;8048;50.644;6.184;2022-12-10T06:03:50;-1.40;99.90
15900;DHT22;8048;50.644;6.184;2022-12-10T06:06:22;-1.30;99.90
15900;DHT22;8048;50.644;6.184;2022-12-10T06:08:48;-1.40;99.90
15900;DHT22;8048;50.644;6.184;2022-12-10T06:11:14;-1.40;99.90
15900;DHT22;8048;50.644;6.184;2022-12-10T06:13:39;-1.50;99.90
15900;DHT22;8048;50.644;6.184;2022-12-10T06:16:10;-1.40;99.90
15900;DHT22;8048;50.644;6.184;2022-12-10T06:18:36;-1.40;99.90
15900;DHT22;8048;50.644;6.184;2022-12-10T06:21:03;-1.40;99.90
15900;DHT22;8048;50.644;6.184;2022-12-10T06:23:29;-1.40;99.90
15900;DHT22;8048;50.644;6.184;2022-12-10T06:25:55;-1.40;99.90
15900;DHT22;8048;50.644;6.184;2022-12-10T06:28:20;-1.50;99.90
15900;DHT22;8048;50.644;6.184;2022-12-10T06:30:46;-1.50;99.90
15900;DHT22;8048;50.644;6.184;2022-12-10T06:33:11;-1.50;99.90
15900;DHT22;8048;50.644;6.184;2022-12-10T06:35:37;-1.40;99.90
15900;DHT22;8048;50.644;6.184;2022-12-10T06:38:03;-1.40;99.90
15900;DHT22;8048;50.644;6.184;2022-12-10T06:40:28;-1.40;99.90
15900;DHT22;8048;50.644;6.184;2022-12-10T06:42:54;-1.40;99.90
15900;DHT22;8048;50.644;6.184;2022-12-10T06:45:19;-1.50;99.90
15900;DHT22;8048;50.644;6.184;2022-12-10T06:47:45;-1.40;99.90
15900;DHT22;8048;50.644;6.184;2022-12-10T06:50:10;-1.40;99.90
15900;DHT22;8048;50.644;6.184;2022-12-10T06:52:36;-1.50;99.90
15900;DHT22;8048;50.644;6.184;2022-12-10T06:55:02;-1.50;99.90
15900;DHT22;8048;50.644;6.184;2022-12-10T06:57:28;-1.40;99.90
15900;DHT22;8048;50.644;6.184;2022-12-10T06:59:54;-1.50;99.90
15900;DHT22;8048;50.644;6.184;2022-12-10T07:02:20;-1.50;99.90
15900;DHT22;8048;50.644;6.184;2022-12-10T07:04:45;-1.50;99.90
15900;DHT22;8048;50.644;6.184;2022-12-10T07:07:11;-1.50;99.90
15900;DHT22;8048;50.644;6.184;2022-12-10T07:09:36;-1.60;99.90
15900;DHT22;8048;50.644;6.184;2022-12-10T07:12:03;-1.60;99.90
15900;DHT22;8048;50.644;6.184;2022-12-10T07:14:29;-1.60;99.90
15900;DHT22;8048;50.644;6.184;2022-12-10T07:16:54;-1.70;99.90
15900;DHT22;8048;50.644;6.184;2022-12-10T07:19:20;-1.70;99.90
15900;DHT22;8048;50.644;6.184;2022-12-10T07:21:45;-1.70;99.90
15900;DHT22;8048;50.644;6.184;2022-12-10T07:24:14;-1.60;99.90
15900;DHT22;8048;50.644;6.184;2022-12-10T07:26:42;-1.60;99.90
15900;DHT22;8048;50.644;6.184;2022-12-10T07:29:12;-1.50;99.90
15900;DHT22;8048;50.644;6.184;2022-12-10T07:31:39;-1.50;99.90
15900;DHT22;8048;50.644;6.184;2022-12-10T07:34:04;-1.60;99.90
15900;DHT22;8048;50.644;6.184;2022-12-10T07:36:30;-1.60;99.90
15900;DHT22;8048;50.644;6.184;2022-12-10T07:38:56;-1.60;99.90
15900;DHT22;8048;50.644;6.184;2022-12-10T07:41:23;-1.60;99.90
15900;DHT22;8048;50.644;6.184;2022-12-10T07:43:50;-1.60;99.90
15900;DHT22;8048;50.644;6.184;2022-12-10T07:46:32;-1.70;99.90
15900;DHT22;8048;50.644;6.184;2022-12-10T07:49:00;-1.70;99.90
15900;DHT22;8048;50.644;6.184;2022-12-10T07:51:26;-1.70;99.90
15900;DHT22;8048;50.644;6.184;2022-12-10T07:53:53;-1.70;99.90
15900;DHT22;8048;50.644;6.184;2022-12-10T07:56:19;-1.70;99.90
15900;DHT22;8048;50.644;6.184;2022-12-10T07:58:45;-1.70;99.90
15900;DHT22;8048;50.644;6.184;2022-12-10T08:01:14;-1.70;99.90
15900;DHT22;8048;50.644;6.184;2022-12-10T08:03:40;-1.70;99.90
15900;DHT22;8048;50.644;6.184;2022-12-10T08:06:10;-1.70;99.90
15900;DHT22;8048;50.644;6.184;2022-12-10T08:08:37;-1.70;99.90
15900;DHT22;8048;50.644;6.184;2022-12-10T08:11:06;-1.70;99.90
15900;DHT22;8048;50.644;6.184;2022-12-10T08:13:32;-1.70;99.90
15900;DHT22;8048;50.644;6.184;2022-12-10T08:16:06;-1.70;99.90
15900;DHT22;8048;50.644;6.184;2022-12-10T08:18:33;-1.60;99.90
15900;DHT22;8048;50.644;6.184;2022-12-10T08:21:07;-1.60;99.90
15900;DHT22;8048;50.644;6.184;2022-12-10T08:23:34;-1.70;99.90
15900;DHT22;8048;50.644;6.184;2022-12-10T08:26:06;-1.60;99.90
15900;DHT22;8048;50.644;6.184;2022-12-10T08:28:33;-1.60;99.90
15900;DHT22;8048;50.644;6.184;2022-12-10T08:30:58;-1.50;99.90
15900;DHT22;8048;50.644;6.184;2022-12-10T08:33:24;-1.40;99.90
15900;DHT22;8048;50.644;6.184;2022-12-10T08:35:50;-1.40;99.90
15900;DHT22;8048;50.644;6.184;2022-12-10T08:38:15;-1.40;99.90
15900;DHT22;8048;50.644;6.184;2022-12-10T08:40:41;-1.20;99.90
15900;DHT22;8048;50.644;6.184;2022-12-10T08:43:08;-1.10;99.90
15900;DHT22;8048;50.644;6.184;2022-12-10T08:45:34;-1.00;99.90
15900;DHT22;8048;50.644;6.184;2022-12-10T08:48:01;-1.00;99.90
15900;DHT22;8048;50.644;6.184;2022-12-10T08:50:27;-0.80;99.90
15900;DHT22;8048;50.644;6.184;2022-12-10T08:52:53;-0.60;99.80
15900;DHT22;8048;50.644;6.184;2022-12-10T08:55:18;-0.50;99.40
15900;DHT22;8048;50.644;6.184;2022-12-10T08:57:44;-0.20;98.80
15900;DHT22;8048;50.644;6.184;2022-12-10T09:00:10;0.10;98.60
15900;DHT22;8048;50.644;6.184;2022-12-10T09:02:36;0.40;97.70
15900;DHT22;8048;50.644;6.184;2022-12-10T09:05:01;0.90;97.80
15900;DHT22;8048;50.644;6.184;2022-12-10T09:07:27;1.50;96.60
15900;DHT22;8048;50.644;6.184;2022-12-10T09:09:52;2.00;95.00
15900;DHT22;8048;50.644;6.184;2022-12-10T09:12:18;2.60;94.40
15900;DHT22;8048;50.644;6.184;2022-12-10T09:14:43;3.10;94.00
15900;DHT22;8048;50.644;6.184;2022-12-10T09:17:09;3.50;92.70
15900;DHT22;8048;50.644;6.184;2022-12-10T09:19:34;4.10;92.70
15900;DHT22;8048;50.644;6.184;2022-12-10T09:22:00;4.50;90.00
15900;DHT22;8048;50.644;6.184;2022-12-10T09:24:26;4.80;90.70
15900;DHT22;8048;50.644;6.184;2022-12-10T09:26:51;5.20;89.10
15900;DHT22;8048;50.644;6.184;2022-12-10T09:29:17;5.60;87.50
15900;DHT22;8048;50.644;6.184;2022-12-10T09:31:42;5.80;84.60
15900;DHT22;8048;50.644;6.184;2022-12-10T09:34:08;6.00;83.80
15900;DHT22;8048;50.644;6.184;2022-12-10T09:36:34;6.40;83.70
15900;DHT22;8048;50.644;6.184;2022-12-10T09:38:59;6.60;82.30
15900;DHT22;8048;50.644;6.184;2022-12-10T09:41:49;7.00;82.70
15900;DHT22;8048;50.644;6.184;2022-12-10T09:44:42;7.40;79.00
15900;DHT22;8048;50.644;6.184;2022-12-10T09:47:10;7.90;80.50
15900;DHT22;8048;50.644;6.184;2022-12-10T09:50:29;8.50;77.70
15900;DHT22;8048;50.644;6.184;2022-12-10T09:52:47;8.60;73.60
15900;DHT22;8048;50.644;6.184;2022-12-10T09:55:18;9.20;75.00
15900;DHT22;8048;50.644;6.184;2022-12-10T09:57:51;9.50;72.00
15900;DHT22;8048;50.644;6.184;2022-12-10T10:00:34;9.40;69.90
15900;DHT22;8048;50.644;6.184;2022-12-10T10:03:01;9.50;71.70
15900;DHT22;8048;50.644;6.184;2022-12-10T10:05:35;9.80;71.30
15900;DHT22;8048;50.644;6.184;2022-12-10T10:08:04;10.00;69.10
15900;DHT22;8048;50.644;6.184;2022-12-10T10:10:35;10.20;67.70
15900;DHT22;8048;50.644;6.184;2022-12-10T10:13:13;10.40;67.70
15900;DHT22;8048;50.644;6.184;2022-12-10T10:15:44;10.60;66.20
15900;DHT22;8048;50.644;6.184;2022-12-10T10:18:32;10.80;67.90
15900;DHT22;8048;50.644;6.184;2022-12-10T10:21:00;11.20;66.70
15900;DHT22;8048;50.644;6.184;2022-12-10T10:23:26;11.50;65.00
15900;DHT22;8048;50.644;6.184;2022-12-10T10:25:51;11.70;64.50
15900;DHT22;8048;50.644;6.184;2022-12-10T10:28:20;11.80;65.90
15900;DHT22;8048;50.644;6.184;2022-12-10T10:30:46;12.20;65.10
15900;DHT22;8048;50.644;6.184;2022-12-10T10:33:13;12.50;64.10
15900;DHT22;8048;50.644;6.184;2022-12-10T10:35:49;12.60;61.70
15900;DHT22;8048;50.644;6.184;2022-12-10T10:38:23;12.70;63.40
15900;DHT22;8048;50.644;6.184;2022-12-10T10:40:56;12.90;61.60
15900;DHT22;8048;50.644;6.184;2022-12-10T10:43:31;13.10;59.70
15900;DHT22;8048;50.644;6.184;2022-12-10T10:46:01;13.10;61.20
15900;DHT22;8048;50.644;6.184;2022-12-10T10:48:28;13.20;59.90
15900;DHT22;8048;50.644;6.184;2022-12-10T10:51:07;13.40;58.90
15900;DHT22;8048;50.644;6.184;2022-12-10T10:53:45;13.20;59.10
15900;DHT22;8048;50.644;6.184;2022-12-10T10:56:17;13.20;58.70
15900;DHT22;8048;50.644;6.184;2022-12-10T11:01:16;13.50;59.40
15900;DHT22;8048;50.644;6.184;2022-12-10T11:03:58;13.90;59.30
15900;DHT22;8048;50.644;6.184;2022-12-10T11:06:24;14.10;59.20
15900;DHT22;8048;50.644;6.184;2022-12-10T11:08:54;14.30;58.20
15900;DHT22;8048;50.644;6.184;2022-12-10T11:11:40;14.60;58.40
15900;DHT22;8048;50.644;6.184;2022-12-10T11:14:15;14.60;57.30
15900;DHT22;8048;50.644;6.184;2022-12-10T11:16:41;14.40;56.60
15900;DHT22;8048;50.644;6.184;2022-12-10T11:19:20;14.50;57.10
15900;DHT22;8048;50.644;6.184;2022-12-10T11:21:47;14.50;57.30
15900;DHT22;8048;50.644;6.184;2022-12-10T11:24:12;14.80;58.30
15900;DHT22;8048;50.644;6.184;2022-12-10T11:26:55;15.30;57.20
15900;DHT22;8048;50.644;6.184;2022-12-10T11:29:44;15.30;55.90
15900;DHT22;8048;50.644;6.184;2022-12-10T11:35:14;15.90;57.00
15900;DHT22;8048;50.644;6.184;2022-12-10T11:37:49;15.80;56.10
15900;DHT22;8048;50.644;6.184;2022-12-10T11:53:56;15.60;54.40
15900;DHT22;8048;50.644;6.184;2022-12-10T11:56:38;15.50;56.20
15900;DHT22;8048;50.644;6.184;2022-12-10T11:59:31;15.60;54.50
15900;DHT22;8048;50.644;6.184;2022-12-10T12:08:05;16.10;55.40
15900;DHT22;8048;50.644;6.184;2022-12-10T12:10:46;16.20;55.60
15900;DHT22;8048;50.644;6.184;2022-12-10T12:13:20;16.20;54.30
15900;DHT22;8048;50.644;6.184;2022-12-10T12:16:12;16.20;54.00
15900;DHT22;8048;50.644;6.184;2022-12-10T12:18:54;15.80;54.90
15900;DHT22;8048;50.644;6.184;2022-12-10T12:21:21;16.10;54.40
15900;DHT22;8048;50.644;6.184;2022-12-10T12:23:54;16.30;54.00
15900;DHT22;8048;50.644;6.184;2022-12-10T12:26:36;16.60;55.30
15900;DHT22;8048;50.644;6.184;2022-12-10T12:31:46;16.60;54.50
15900;DHT22;8048;50.644;6.184;2022-12-10T12:34:21;16.80;54.80
15900;DHT22;8048;50.644;6.184;2022-12-10T12:36:49;16.90;53.70
15900;DHT22;8048;50.644;6.184;2022-12-10T12:39:23;16.90;54.70
15900;DHT22;8048;50.644;6.184;2022-12-10T12:45:03;16.60;54.40
15900;DHT22;8048;50.644;6.184;2022-12-10T12:50:47;16.20;52.50
15900;DHT22;8048;50.644;6.184;2022-12-10T12:53:16;15.50;53.40
15900;DHT22;8048;50.644;6.184;2022-12-10T12:56:03;15.20;53.80
15900;DHT22;8048;50.644;6.184;2022-12-10T13:01:28;14.30;54.50
15900;DHT22;8048;50.644;6.184;2022-12-10T13:03:57;13.70;55.60
15900;DHT22;8048;50.644;6.184;2022-12-10T13:06:26;13.50;55.70
15900;DHT22;8048;50.644;6.184;2022-12-10T13:11:43;13.00;56.10
15900;DHT22;8048;50.644;6.184;2022-12-10T13:19:23;13.10;57.80
15900;DHT22;8048;50.644;6.184;2022-12-10T13:27:27;13.50;57.50
15900;DHT22;8048;50.644;6.184;2022-12-10T13:37:57;12.10;57.90
15900;DHT22;8048;50.644;6.184;2022-12-10T13:43:38;11.70;59.20
15900;DHT22;8048;50.644;6.184;2022-12-10T13:49:25;11.10;59.30
15900;DHT22;8048;50.644;6.184;2022-12-10T13:57:31;10.10;61.20
15900;DHT22;8048;50.644;6.184;2022-12-10T14:00:18;9.50;62.90
15900;DHT22;8048;50.644;6.184;2022-12-10T14:08:38;8.20;66.40
15900;DHT22;8048;50.644;6.184;2022-12-10T14:11:13;8.10;68.20
15900;DHT22;8048;50.644;6.184;2022-12-10T14:13:45;7.80;68.70
15900;DHT22;8048;50.644;6.184;2022-12-10T14:16:14;7.70;70.30
15900;DHT22;8048;50.644;6.184;2022-12-10T14:18:46;7.40;71.30
15900;DHT22;8048;50.644;6.184;2022-12-10T14:21:14;7.10;71.20
15900;DHT22;8048;50.644;6.184;2022-12-10T14:23:46;6.90;72.60
15900;DHT22;8048;50.644;6.184;2022-12-10T14:26:20;6.70;74.40
15900;DHT22;8048;50.644;6.184;2022-12-10T14:28:48;6.60;74.50
15900;DHT22;8048;50.644;6.184;2022-12-10T14:31:18;6.40;74.80
15900;DHT22;8048;50.644;6.184;2022-12-10T14:33:46;6.20;76.60
15900;DHT22;8048;50.644;6.184;2022-12-10T14:36:20;6.00;77.40
15900;DHT22;8048;50.644;6.184;2022-12-10T14:38:47;5.80;77.00
15900;DHT22;8048;50.644;6.184;2022-12-10T14:41:17;5.60;78.80
15900;DHT22;8048;50.644;6.184;2022-12-10T14:43:43;5.50;79.80
15900;DHT22;8048;50.644;6.184;2022-12-10T14:46:23;5.30;80.80
15900;DHT22;8048;50.644;6.184;2022-12-10T14:48:51;5.10;81.10
15900;DHT22;8048;50.644;6.184;2022-12-10T14:51:20;4.90;82.40
15900;DHT22;8048;50.644;6.184;2022-12-10T14:53:47;4.60;82.70
15900;DHT22;8048;50.644;6.184;2022-12-10T14:56:31;4.40;85.60
15900;DHT22;8048;50.644;6.184;2022-12-10T14:59:10;4.10;86.10
15900;DHT22;8048;50.644;6.184;2022-12-10T15:01:40;3.80;87.70
15900;DHT22;8048;50.644;6.184;2022-12-10T15:04:14;3.50;89.70
15900;DHT22;8048;50.644;6.184;2022-12-10T15:06:41;3.30;90.30
15900;DHT22;8048;50.644;6.184;2022-12-10T15:09:15;3.20;91.50
15900;DHT22;8048;50.644;6.184;2022-12-10T15:11:41;3.30;92.60
15900;DHT22;8048;50.644;6.184;2022-12-10T15:14:15;3.20;92.30
15900;DHT22;8048;50.644;6.184;2022-12-10T15:16:43;3.20;92.60
15900;DHT22;8048;50.644;6.184;2022-12-10T15:19:21;3.10;92.80
15900;DHT22;8048;50.644;6.184;2022-12-10T15:21:50;3.10;93.20
15900;DHT22;8048;50.644;6.184;2022-12-10T15:26:47;3.10;94.10
15900;DHT22;8048;50.644;6.184;2022-12-10T15:31:49;2.90;94.10
15900;DHT22;8048;50.644;6.184;2022-12-10T15:34:15;2.70;94.10
15900;DHT22;8048;50.644;6.184;2022-12-10T15:36:49;2.60;94.20
15900;DHT22;8048;50.644;6.184;2022-12-10T15:39:32;2.60;95.00
15900;DHT22;8048;50.644;6.184;2022-12-10T15:42:04;2.60;95.30
15900;DHT22;8048;50.644;6.184;2022-12-10T15:44:32;2.60;95.40
15900;DHT22;8048;50.644;6.184;2022-12-10T15:49:23;2.50;95.20
15900;DHT22;8048;50.644;6.184;2022-12-10T15:51:49;2.50;95.40
15900;DHT22;8048;50.644;6.184;2022-12-10T15:54:35;2.40;95.70
15900;DHT22;8048;50.644;6.184;2022-12-10T15:57:21;2.40;95.80
15900;DHT22;8048;50.644;6.184;2022-12-10T15:59:49;2.30;95.90
15900;DHT22;8048;50.644;6.184;2022-12-10T16:02:37;2.40;96.00
15900;DHT22;8048;50.644;6.184;2022-12-10T16:05:28;2.30;95.90
15900;DHT22;8048;50.644;6.184;2022-12-10T16:08:06;2.10;95.90
15900;DHT22;8048;50.644;6.184;2022-12-10T16:10:36;2.10;95.40
15900;DHT22;8048;50.644;6.184;2022-12-10T16:13:05;2.00;95.20
15900;DHT22;8048;50.644;6.184;2022-12-10T16:15:34;2.00;95.50
15900;DHT22;8048;50.644;6.184;2022-12-10T16:18:02;1.80;95.20
15900;DHT22;8048;50.644;6.184;2022-12-10T16:20:29;1.70;95.50
15900;DHT22;8048;50.644;6.184;2022-12-10T16:22:57;1.60;95.40
15900;DHT22;8048;50.644;6.184;2022-12-10T16:25:25;1.60;95.50
15900;DHT22;8048;50.644;6.184;2022-12-10T16:27:51;1.50;95.60
15900;DHT22;8048;50.644;6.184;2022-12-10T16:30:37;1.40;96.00
15900;DHT22;8048;50.644;6.184;2022-12-10T16:33:03;1.40;96.00
15900;DHT22;8048;50.644;6.184;2022-12-10T16:35:29;1.40;96.10
15900;DHT22;8048;50.644;6.184;2022-12-10T16:37:55;1.30;95.90
15900;DHT22;8048;50.644;6.184;2022-12-10T16:40:26;1.20;95.90
15900;DHT22;8048;50.644;6.184;2022-12-10T16:42:52;1.10;96.00
15900;DHT22;8048;50.644;6.184;2022-12-10T16:47:45;0.90;96.10
15900;DHT22;8048;50.644;6.184;2022-12-10T16:50:12;0.90;95.90
15900;DHT22;8048;50.644;6.184;2022-12-10T16:52:39;0.80;95.70
15900;DHT22;8048;50.644;6.184;2022-12-10T16:55:05;0.80;96.00
15900;DHT22;8048;50.644;6.184;2022-12-10T16:57:33;0.70;96.20
15900;DHT22;8048;50.644;6.184;2022-12-10T16:59:58;0.60;96.30
15900;DHT22;8048;50.644;6.184;2022-12-10T17:02:24;0.60;96.40
15900;DHT22;8048;50.644;6.184;2022-12-10T17:04:50;0.50;96.40
15900;DHT22;8048;50.644;6.184;2022-12-10T17:07:15;0.40;96.20
15900;DHT22;8048;50.644;6.184;2022-12-10T17:09:41;0.30;96.10
15900;DHT22;8048;50.644;6.184;2022-12-10T17:12:08;0.30;96.20
15900;DHT22;8048;50.644;6.184;2022-12-10T17:14:39;0.30;96.20
15900;DHT22;8048;50.644;6.184;2022-12-10T17:17:06;0.20;96.30
15900;DHT22;8048;50.644;6.184;2022-12-10T17:19:34;0.10;96.20
15900;DHT22;8048;50.644;6.184;2022-12-10T17:22:01;0.10;96.70
15900;DHT22;8048;50.644;6.184;2022-12-10T17:24:26;0.10;96.80
15900;DHT22;8048;50.644;6.184;2022-12-10T17:26:53;0.10;96.40
15900;DHT22;8048;50.644;6.184;2022-12-10T17:29:36;0.00;96.40
15900;DHT22;8048;50.644;6.184;2022-12-10T17:32:04;0.00;96.80
15900;DHT22;8048;50.644;6.184;2022-12-10T17:34:30;-0.10;97.00
15900;DHT22;8048;50.644;6.184;2022-12-10T17:36:56;-0.10;96.90
15900;DHT22;8048;50.644;6.184;2022-12-10T17:39:22;-0.10;97.00
15900;DHT22;8048;50.644;6.184;2022-12-10T17:41:51;-0.10;97.30
15900;DHT22;8048;50.644;6.184;2022-12-10T17:44:18;-0.10;97.40
15900;DHT22;8048;50.644;6.184;2022-12-10T17:46:44;-0.10;97.30
15900;DHT22;8048;50.644;6.184;2022-12-10T17:49:13;-0.20;97.00
15900;DHT22;8048;50.644;6.184;2022-12-10T17:51:39;-0.30;96.90
15900;DHT22;8048;50.644;6.184;2022-12-10T17:54:04;-0.40;97.00
15900;DHT22;8048;50.644;6.184;2022-12-10T17:56:30;-0.40;97.20